Delmar, NY (12054)

9:14 AM EDT on July 24, 2016 (GMT -0400)
Slingerlands - Delmar | | Change Station

Elev 256 ft 42.62 °N, 73.86 °W | Updated 8 seconds ago

Scattered Clouds
Scattered Clouds
70.2 °F
Feels Like 70.2 °F
N
0.0
Wind Variable Wind from WSW
Gusts 0.0 mph

Today
High -- | Low -- °F
--% Chance of Precip.
Yesterday
High -- | Low -- °F
Precip. -- in
Pressure 30.02 in
Visibility 10.0 miles
Clouds Few 500 ft
Few 2500 ft
Scattered Clouds 26000 ft
Scattered Clouds 30000 ft
Dew Point 65 °F
Humidity 84%
Rainfall 0.00 in
Snow Depth Not available.
5:39 AM 8:23 PM
Waning Gibbous, 76% visible
METAR KALB 241251Z 36006KT 10SM FEW005 FEW025 SCT260 SCT300 22/17 A3002 RMK AO2 SLP164 T02170172
Pressure 30.02 in
Visibility 10.0 miles
Clouds Few 500 ft
Few 2500 ft
Scattered Clouds 26000 ft
Scattered Clouds 30000 ft
Dew Point 65 °F
Humidity 84%
Rainfall 0.00 in
Snow Depth Not available.
5:39 AM 8:23 PM
Waning Gibbous, 76% visible
METAR KALB 241251Z 36006KT 10SM FEW005 FEW025 SCT260 SCT300 22/17 A3002 RMK AO2 SLP164 T02170172

10-Day Weather Forecast

Almanac

Astronomy

Jul. 24, 2016 Rise Set
Actual Time
Civil Twilight
Nautical Twilight
Astronomical Twilight
Moon
Length of Visible Light
Length of Day
Tomorrow will be .
, % of the Moon is Illuminated

Today's Extremes

State Highs State Lows

Community

WunderPhotos

Upload Photos

1,927,055 photos uploaded!

WunderBlog® & News

Nearby

Air Quality

  Air Quality AQ Index Pollutant
Not available.

Snow Depth

Station Depth Elevation

Earthquake Activity

City Distance Mag. Time & Date
Minimum magnitude displayed is 2.5.

Coastal Water Temperatures

Place Temperature

Stations

Nearby Weather Stations

Station Location Temp. Windchill Dew Point Humidity Wind Precip. Elev Updated Type
                   

Watches & Warnings

There are currently no watches in effect.